LEBB/BIO METAR and TAF weather

Enter ICAO airport designator
Station Type Date Time Source
LEBB METAR 2022/12/08 11:30 UTC NOAA

LEBB 081130Z 12005KT 080V150 9999 FEW026 BKN068 13/10 Q1002 NOSIG


Station Type Date Time Source
LEBB Decoded METAR 2022/12/08 11:30 UTC NOAA

Bilbao / Sondica, Spain (LEBB) 43-18N 002-56W 37M
Dec 08, 2022 - 06:30 AM EST / 2022.12.08 1130 UTC
Wind: from the ESE (120 degrees) at 6 MPH (5 KT) (direction variable):0
Visibility: greater than 7 mile(s):0
Sky conditions: mostly cloudy
Temperature: 55 F (13 C)
Dew Point: 50 F (10 C)
Relative Humidity: 81%
Pressure (altimeter): 29.59 in. Hg (1002 hPa)
ob: LEBB 081130Z 12005KT 080V150 9999 FEW026 BKN068 13/10 Q1002 NOSIG
cycle: 11

Station Type Date Time Source
LEBB TAF 2022/12/08 12:27 UTC NOAA

TAF LEBB 081100Z 0812/0912 14006KT 9999 FEW010 BKN045 TX12/0812Z TN08/0903Z PROB40
TEMPO 0812/0818 3000 RA PROB30
TEMPO 0812/0818 BKN010 PROB40
TEMPO 0909/0912 03008KT 3000 RA BKN010

Example: see airport list